Home > Products > Valid Products > MTR

000
SAUS45 KGGW 091549
MTRJDN
METAR KJDN 091548Z AUTO 28008KT 01/M01 A3023 RMK AO1 SLP267
T00111011





000
SAUS45 KGGW 091449
MTRJDN
METAR KJDN 091448Z AUTO 29008KT 00/M02 A3024 RMK AO1 SLP271
T00001022 58003





000
SAUS45 KGGW 091449
MTRJDN
METAR KJDN 091448Z AUTO 29008KT 00/M02 A3024 RMK AO1 SLP271
T00001022 58003





000
SAUS45 KGGW 091349
MTRJDN
METAR KJDN 091348Z AUTO 27008KT M02/M03 A3024 RMK AO1 SLP274
T10171028





000
SAUS45 KGGW 091249
MTRJDN
METAR KJDN 091248Z AUTO 29006KT M02/M03 A3025 RMK AO1 SLP273
T10171028





000
SAUS45 KGGW 091249
MTRJDN
METAR KJDN 091248Z AUTO 29006KT M02/M03 A3025 RMK AO1 SLP273
T10171028





000
SAUS45 KGGW 091149
MTRJDN
METAR KJDN 091148Z AUTO 27007KT M02/M03 A3025 RMK AO1 SLP270
T10171028 10006 21017 55001





000
SAUS45 KGGW 091049
MTRJDN
METAR KJDN 091048Z AUTO 29006KT M01/M03 A3023 RMK AO1 SLP263
T10111028





000
SAUS45 KGGW 091049
MTRJDN
METAR KJDN 091048Z AUTO 29006KT M01/M03 A3023 RMK AO1 SLP263
T10111028





000
SAUS45 KGGW 090949
MTRJDN
METAR KJDN 090948Z AUTO 29007KT M01/M02 A3025 RMK AO1 SLP268
T10061022





000
SAUS45 KGGW 090849
MTRJDN
METAR KJDN 090848Z AUTO 28008KT M01/M02 A3025 RMK AO1 SLP268
T10061022 51004





000
SAUS45 KGGW 090749
MTRJDN
METAR KJDN 090748Z AUTO 28009KT 01/M02 A3025 RMK AO1 SLP266
T00061022





000
SAUS45 KGGW 090649
MTRJDN
METAR KJDN 090648Z AUTO 29005KT 00/M02 A3026 RMK AO1 SLP273
T00001017 400781056





000
SAUS45 KGGW 090649
MTRJDN
METAR KJDN 090648Z AUTO 29005KT 00/M02 A3026 RMK AO1 SLP273
T00001017 400781056





000
SAUS45 KGGW 090549
MTRJDN
METAR KJDN 090548Z AUTO 28006KT M01/M02 A3024 RMK AO1 SLP268
T10061022 10044 21011 56003





000
SAUS45 KGGW 090449
MTRJDN
METAR KJDN 090448Z AUTO 27006KT 00/M02 A3024 RMK AO1 SLP273
T00001017





000
SAUS45 KGGW 090349
MTRJDN
METAR KJDN 090348Z AUTO 28006KT 01/M02 A3023 RMK AO1 SLP271
T00061017





000
SAUS45 KGGW 090249
MTRJDN
METAR KJDN 090248Z AUTO 28005KT 00/M02 A3024 RMK AO1 SLP278
T00001022 58006





000
SAUS45 KGGW 090149
MTRJDN
METAR KJDN 090148Z AUTO 28004KT 00/M03 A3026 RMK AO1 SLP284
T00001028





000
SAUS45 KGGW 090050
MTRJDN
METAR KJDN 090048Z AUTO 00000KT 03/M03 A3027 RMK AO1 SLP283
T00281028





000
SAUS45 KGGW 090050
MTRJDN
METAR KJDN 090048Z AUTO 00000KT 03/M03 A3027 RMK AO1 SLP283
T00281028





000
SAUS45 KGGW 082349
MTRJDN
METAR KJDN 082348Z AUTO 02004KT 04/M02 A3026 RMK AO1 SLP281
T00441017 10078 20028 55008





000
SAUS45 KGGW 082349
MTRJDN
METAR KJDN 082348Z AUTO 02004KT 04/M02 A3026 RMK AO1 SLP281
T00441017 10078 20028 55008





000
SAUS45 KGGW 082249
MTRJDN
METAR KJDN 082248Z AUTO 00000KT 07/M02 A3026 RMK AO1 SLP275
T00721017





000
SAUS45 KGGW 082149
MTRJDN
METAR KJDN 082148Z AUTO 30005KT 07/M01 A3027 RMK AO1 SLP279
T00721011





000
SAUS45 KGGW 082049
MTRJDN
METAR KJDN 082048Z AUTO 29006KT 07/M03 A3029 RMK AO1 SLP287
T00721028 58021





000
SAUS45 KGGW 082049
MTRJDN
METAR KJDN 082048Z AUTO 29006KT 07/M03 A3029 RMK AO1 SLP287
T00721028 58021





000
SAUS45 KGGW 081949
MTRJDN
METAR KJDN 081948Z AUTO 28007KT 07/M04 A3031 RMK AO1 SLP293
T00671044





000
SAUS45 KGGW 081849
MTRJDN
METAR KJDN 081848Z AUTO 26007KT 05/M06 A3035 RMK AO1 SLP306
T00501061





000
SAUS45 KGGW 081849
MTRJDN
METAR KJDN 081848Z AUTO 26007KT 05/M06 A3035 RMK AO1 SLP306
T00501061





000
SAUS45 KGGW 081749
MTRJDN
METAR KJDN 081748Z AUTO 25005KT 02/M07 A3036 RMK AO1 SLP314
T00221067 10022 21056 58012





000
SAUS45 KGGW 081649
MTRJDN
METAR KJDN 081648Z AUTO 25004KT M01/M07 A3039 RMK AO1 SLP324
T10061072





000
SAUS45 KGGW 081549
MTRJDN
METAR KJDN 081548Z AUTO 28005KT M02/M07 A3039 RMK AO1 SLP331
T10221072





000
SAUS45 KGGW 081449
MTRJDN
METAR KJDN 081448Z AUTO 29004KT M05/M08 A3039 RMK AO1 SLP331
T10501078 58003





000
SAUS45 KGGW 081349
MTRJDN
METAR KJDN 081348Z AUTO 29006KT M04/M08 A3039 RMK AO1 SLP331
T10441078





000
SAUS45 KGGW 081249
MTRJDN
METAR KJDN 081248Z AUTO 27005KT M05/M08 A3041 RMK AO1 SLP337
T10501083





000
SAUS45 KGGW 081149
MTRJDN
METAR KJDN 081148Z AUTO 00000KT M06/M08 A3040 RMK AO1 SLP334
T10561078 11039 21056 57001





000
SAUS45 KGGW 081149
MTRJDN
METAR KJDN 081148Z AUTO 00000KT M06/M08 A3040 RMK AO1 SLP334
T10561078 11039 21056 57001





000
SAUS45 KGGW 081049
MTRJDN
METAR KJDN 081048Z AUTO 27007KT M05/M08 A3041 RMK AO1 SLP332
T10501083





000
SAUS45 KGGW 081049
MTRJDN
METAR KJDN 081048Z AUTO 27007KT M05/M08 A3041 RMK AO1 SLP332
T10501083





000
SAUS45 KGGW 080949
MTRJDN
METAR KJDN 080948Z AUTO 27006KT M04/M08 A3040 RMK AO1 SLP330
T10441083





000
SAUS45 KGGW 080949
MTRJDN
METAR KJDN 080948Z AUTO 27006KT M04/M08 A3040 RMK AO1 SLP330
T10441083





000
SAUS45 KGGW 080849
MTRJDN
METAR KJDN 080848Z AUTO 29004KT M05/M08 A3041 RMK AO1 SLP331
T10501083 55005





000
SAUS45 KGGW 080749
MTRJDN
METAR KJDN 080748Z AUTO 28006KT M04/M08 A3039 RMK AO1 SLP326
T10441083





000
SAUS45 KGGW 080649
MTRJDN
METAR KJDN 080648Z AUTO 27009KT M04/M08 A3041 RMK AO1 SLP333
T10441078 400331050





000
SAUS45 KGGW 080549
MTRJDN
METAR KJDN 080548Z AUTO 28008KT M04/M08 A3042 RMK AO1 SLP338
T10391078 10011 21050 53003





000
SAUS45 KGGW 080549
MTRJDN
METAR KJDN 080548Z AUTO 28008KT M04/M08 A3042 RMK AO1 SLP338
T10391078 10011 21050 53003





000
SAUS45 KGGW 080449
MTRJDN
METAR KJDN 080448Z AUTO 30009KT M02/M08 A3040 RMK AO1 SLP330
T10221083





000
SAUS45 KGGW 080349
MTRJDN
METAR KJDN 080348Z AUTO 30010KT M03/M07 A3041 RMK AO1 SLP336
T10331072





000
SAUS45 KGGW 080249
MTRJDN
METAR KJDN 080248Z AUTO 33014KT 00/M08 A3041 RMK AO1 SLP333
T00001083 50007





000
SAUS45 KGGW 080249
MTRJDN
METAR KJDN 080248Z AUTO 33014KT 00/M08 A3041 RMK AO1 SLP333
T00001083 50007





000
SAUS45 KGGW 080149
MTRJDN
METAR KJDN 080148Z AUTO 31011KT M01/M07 A3042 RMK AO1 SLP336
T10061072





000
SAUS45 KGGW 080149
MTRJDN
METAR KJDN 080148Z AUTO 31011KT M01/M07 A3042 RMK AO1 SLP336
T10061072





000
SAUS45 KGGW 080049
MTRJDN
METAR KJDN 080048Z AUTO 31014KT 01/M08 A3040 RMK AO1 SLP328
T00061078





000
SAUS45 KGGW 072349
MTRJDN
METAR KJDN 072348Z AUTO 32017KT 01/M08 A3039 RMK AO1 PK WND
31027/2253 SLP323 T00111078 10033 20011 53012





000
SAUS45 KGGW 072249
MTRJDN
METAR KJDN 072248Z AUTO 31022G26KT 03/M09 A3038 RMK AO1 PK WND
31027/2247 SLP315 T00281089





000
SAUS45 KGGW 072249
MTRJDN
METAR KJDN 072248Z AUTO 31022G26KT 03/M09 A3038 RMK AO1 PK WND
31027/2247 SLP315 T00281089





000
SAUS45 KGGW 072149
MTRJDN
METAR KJDN 072148Z AUTO 31020G27KT 03/M08 A3036 RMK AO1 PK WND
31032/2049 SLP309 T00331083





000
SAUS45 KGGW 072049
MTRJDN
METAR KJDN 072048Z AUTO 32027G34KT 03/M08 A3035 RMK AO1 PK WND
32034/2047 SLP305 T00281083 50000





000
SAUS45 KGGW 071949
MTRJDN
METAR KJDN 071948Z AUTO 32025G32KT 02/M08 A3035 RMK AO1 PK WND
33033/1930 SLP306 T00221078





000
SAUS45 KGGW 071849
MTRJDN
METAR KJDN 071848Z AUTO 32021G28KT 02/M08 A3036 RMK AO1 PK WND
30031/1812 SLP309 T00221078





000
SAUS45 KGGW 071749
MTRJDN
METAR KJDN 071748Z AUTO 31025G29KT 02/M08 A3035 RMK AO1 PK WND
31031/1718 SLP307 T00171078 10017 21017 51021





000
SAUS45 KGGW 071749
MTRJDN
METAR KJDN 071748Z AUTO 31025G29KT 02/M08 A3035 RMK AO1 PK WND
31031/1718 SLP307 T00171078 10017 21017 51021





000
SAUS45 KGGW 071649
MTRJDN
METAR KJDN 071648Z AUTO 31021G27KT 01/M08 A3033 RMK AO1 PK WND
31028/1557 SLP299 T00061078





000
SAUS45 KGGW 071549
MTRJDN
METAR KJDN 071548Z AUTO 30020G30KT M01/M08 A3032 RMK AO1 PK WND
30030/1539 SLP297 T10061078





000
SAUS45 KGGW 071449
MTRJDN
METAR KJDN 071448Z AUTO 31018KT M02/M08 A3029 RMK AO1 SLP288
T10171083 53030





000
SAUS45 KGGW 071349
MTRJDN
METAR KJDN 071348Z AUTO 31018G25KT M01/M08 A3025 RMK AO1 PK WND
31032/1323 SLP275 T10111083





000
SAUS45 KGGW 071249
MTRJDN
METAR KJDN 071248Z AUTO 30022G27KT M01/M08 A3022 RMK AO1 PK WND
31033/1217 SLP262 T10061078





000
SAUS45 KGGW 071249
MTRJDN
METAR KJDN 071248Z AUTO 30022G27KT M01/M08 A3022 RMK AO1 PK WND
31033/1217 SLP262 T10061078





000
SAUS45 KGGW 071149
MTRJDN
METAR KJDN 071148Z AUTO 31024G33KT 00/M08 A3019 RMK AO1 PK WND
31033/1112 SLP251 T00001083 10022 20000 51028





000
SAUS45 KGGW 071049
MTRJDN
METAR KJDN 071048Z AUTO 30024G33KT 01/M08 A3016 RMK AO1 PK WND
31035/1018 SLP240 T00061083





000
SAUS45 KGGW 070949
MTRJDN
METAR KJDN 070948Z AUTO 30022G31KT 01/M08 A3014 RMK AO1 PK WND
32033/0900 SLP229 T00111083





000
SAUS45 KGGW 070849
MTRJDN
METAR KJDN 070848Z AUTO 31025G35KT 02/M08 A3010 RMK AO1 PK WND
31035/0844 SLP213 T00221083 51022





000
SAUS45 KGGW 070749
MTRJDN
METAR KJDN 070748Z AUTO 30019G28KT 02/M07 A3008 RMK AO1 PK WND
31028/0743 SLP206 T00221072





000
SAUS45 KGGW 070649
MTRJDN
METAR KJDN 070648Z AUTO 29015KT 02/M05 A3006 RMK AO1 SLP198
T00171050 400830006





000
SAUS45 KGGW 070649
MTRJDN
METAR KJDN 070648Z AUTO 29015KT 02/M05 A3006 RMK AO1 SLP198
T00171050 400830006





000
SAUS45 KGGW 070549
MTRJDN
METAR KJDN 070548Z AUTO 28014KT 02/M04 A3003 RMK AO1 SLP190
T00171044 10033 20011 53006





000
SAUS45 KGGW 070549
MTRJDN
METAR KJDN 070548Z AUTO 28014KT 02/M04 A3003 RMK AO1 SLP190
T00171044 10033 20011 53006





000
SAUS45 KGGW 070449
MTRJDN
METAR KJDN 070448Z AUTO 27013G24KT 02/M03 A3002 RMK AO1 PK WND
30031/0426 SLP188 T00171028





000
SAUS45 KGGW 070349
MTRJDN
METAR KJDN 070348Z AUTO 28011KT 02/M02 A3002 RMK AO1 PK WND
31032/0306 SLP190 T00171022





000
SAUS45 KGGW 070249
MTRJDN
METAR KJDN 070248Z AUTO 31017KT 01/M01 A3001 RMK AO1 PK WND
32029/0156 SLP187 T00111006 50013





000
SAUS45 KGGW 070149
MTRJDN
METAR KJDN 070148Z AUTO 32020G26KT 01/M01 A3002 RMK AO1 PK WND
30033/0053 SLP190 T00111006





000
SAUS45 KGGW 070149
MTRJDN
METAR KJDN 070148Z AUTO 32020G26KT 01/M01 A3002 RMK AO1 PK WND
30033/0053 SLP190 T00111006





000
SAUS45 KGGW 070049
MTRJDN
METAR KJDN 070048Z AUTO 30023KT 02/M02 A2999 RMK AO1 PK WND
32039/0007 SLP179 T00221017





000
SAUS45 KGGW 070049
MTRJDN
METAR KJDN 070048Z AUTO 30023KT 02/M02 A2999 RMK AO1 PK WND
32039/0007 SLP179 T00221017





000
SAUS45 KGGW 062349
MTRJDN
METAR KJDN 062348Z AUTO 31025G32KT 03/M02 A2997 RMK AO1 PK WND
30037/2301 SLP171 T00331022 10083 20033 53045





000
SAUS45 KGGW 062349
MTRJDN
METAR KJDN 062348Z AUTO 31025G32KT 03/M02 A2997 RMK AO1 PK WND
30037/2301 SLP171 T00331022 10083 20033 53045





000
SAUS45 KGGW 062249
MTRJDN
METAR KJDN 062248Z AUTO 30028G37KT 04/M02 A2993 RMK AO1 PK WND
30050/2212 SLP153 T00391022





000
SAUS45 KGGW 062149
MTRJDN
METAR KJDN 062148Z AUTO 29027G45KT 06/M04 A2987 RMK AO1 PK WND
29049/2118 SLP136 T00561044





000
SAUS45 KGGW 062049
MTRJDN
METAR KJDN 062048Z AUTO 29033G45KT 07/M05 A2983 RMK AO1 PK WND
29048/1949 SLP119 T00721050 53004





000
SAUS45 KGGW 061949
MTRJDN
METAR KJDN 061948Z AUTO 28029G47KT 08/M07 A2982 RMK AO1 PK WND
27049/1934 SLP114 T00781072





000
SAUS45 KGGW 061849
MTRJDN
METAR KJDN 061848Z AUTO 29023G33KT 08/M03 A2982 RMK AO1 PK WND
29037/1828 SLP115 T00781033





000
SAUS45 KGGW 061849
MTRJDN
METAR KJDN 061848Z AUTO 29023G33KT 08/M03 A2982 RMK AO1 PK WND
29037/1828 SLP115 T00781033





000
SAUS45 KGGW 061749
MTRJDN
METAR KJDN 061748Z AUTO 27025G39KT 07/M03 A2982 RMK AO1 PK WND
27041/1733 SLP114 T00721033 10083 20033 55000





000
SAUS45 KGGW 061749
MTRJDN
METAR KJDN 061748Z AUTO 27025G39KT 07/M03 A2982 RMK AO1 PK WND
27041/1733 SLP114 T00721033 10083 20033 55000





000
SAUS45 KGGW 061649
MTRJDN
METAR KJDN 061648Z AUTO 25013KT 06/M02 A2981 RMK AO1 SLP116
T00561022





    US Dept of Commerce
    National Oceanic and Atmospheric Administration
    National Weather Service
    1325 East West Highway
    Silver Spring, MD 20910
    Page Author: NWS Internet Services Team
Disclaimer
Information Quality
Credits
Glossary
Privacy Policy
Freedom of Information Act (FOIA)
About Us
Career Opportunities